sensor_id;sensor_type;location;lat;lon;timestamp;pressure;altitude;pressure_sealevel;temperature;humidity
77325;BME280;66387;53.440;10.390;2023-06-22T00:02:04;101316.53;;;18.60;74.76
77325;BME280;66387;53.440;10.390;2023-06-22T00:04:29;101317.28;;;18.64;74.45
77325;BME280;66387;53.440;10.390;2023-06-22T00:06:54;101324.84;;;18.73;74.14
77325;BME280;66387;53.440;10.390;2023-06-22T00:09:19;101318.72;;;18.73;74.62
77325;BME280;66387;53.440;10.390;2023-06-22T00:11:45;101325.81;;;18.71;74.22
77325;BME280;66387;53.440;10.390;2023-06-22T00:14:10;101320.72;;;18.66;74.16
77325;BME280;66387;53.440;10.390;2023-06-22T00:16:35;101314.59;;;18.66;74.60
77325;BME280;66387;53.440;10.390;2023-06-22T00:19:00;101325.19;;;18.64;74.90
77325;BME280;66387;53.440;10.390;2023-06-22T00:21:27;101313.94;;;18.59;74.57
77325;BME280;66387;53.440;10.390;2023-06-22T00:23:53;101309.44;;;18.63;74.19
77325;BME280;66387;53.440;10.390;2023-06-22T00:26:19;101311.31;;;18.59;74.76
77325;BME280;66387;53.440;10.390;2023-06-22T00:28:44;101313.94;;;18.59;74.41
77325;BME280;66387;53.440;10.390;2023-06-22T00:31:09;101309.50;;;18.61;74.37
77325;BME280;66387;53.440;10.390;2023-06-22T00:33:35;101314.03;;;18.57;74.74
77325;BME280;66387;53.440;10.390;2023-06-22T00:36:00;101309.56;;;18.59;74.16
77325;BME280;66387;53.440;10.390;2023-06-22T00:38:28;101306.13;;;18.57;73.88
77325;BME280;66387;53.440;10.390;2023-06-22T00:40:53;101319.31;;;18.56;73.69
77325;BME280;66387;53.440;10.390;2023-06-22T00:43:18;101315.81;;;18.55;73.84
77325;BME280;66387;53.440;10.390;2023-06-22T00:45:43;101317.66;;;18.53;73.60
77325;BME280;66387;53.440;10.390;2023-06-22T00:48:09;101324.78;;;18.50;73.71
77325;BME280;66387;53.440;10.390;2023-06-22T00:50:35;101322.31;;;18.44;74.30
77325;BME280;66387;53.440;10.390;2023-06-22T00:53:05;101324.47;;;18.33;74.47
77325;BME280;66387;53.440;10.390;2023-06-22T00:55:35;101331.44;;;18.34;74.42
77325;BME280;66387;53.440;10.390;2023-06-22T00:58:03;101329.66;;;18.36;74.59
77325;BME280;66387;53.440;10.390;2023-06-22T01:00:31;101330.44;;;18.38;74.87
77325;BME280;66387;53.440;10.390;2023-06-22T01:02:57;101323.53;;;18.35;74.67
77325;BME280;66387;53.440;10.390;2023-06-22T01:05:23;101320.19;;;18.30;74.87
77325;BME280;66387;53.440;10.390;2023-06-22T01:08:12;101321.25;;;18.25;75.09
77325;BME280;66387;53.440;10.390;2023-06-22T01:13:39;101328.75;;;18.10;75.87
77325;BME280;66387;53.440;10.390;2023-06-22T01:16:18;101327.91;;;18.08;75.57
77325;BME280;66387;53.440;10.390;2023-06-22T01:18:47;101329.00;;;18.03;75.13
77325;BME280;66387;53.440;10.390;2023-06-22T01:21:14;101328.22;;;17.99;75.24
77325;BME280;66387;53.440;10.390;2023-06-22T01:24:09;101319.66;;;17.93;75.76
77325;BME280;66387;53.440;10.390;2023-06-22T01:26:42;101320.63;;;17.90;75.69
77325;BME280;66387;53.440;10.390;2023-06-22T01:29:11;101324.13;;;17.91;75.93
77325;BME280;66387;53.440;10.390;2023-06-22T01:31:39;101323.28;;;17.89;76.16
77325;BME280;66387;53.440;10.390;2023-06-22T01:34:06;101325.91;;;17.89;76.40
77325;BME280;66387;53.440;10.390;2023-06-22T01:36:33;101319.88;;;17.87;76.46
77325;BME280;66387;53.440;10.390;2023-06-22T01:38:59;101313.72;;;17.88;76.55
77325;BME280;66387;53.440;10.390;2023-06-22T01:41:26;101313.00;;;17.83;76.48
77325;BME280;66387;53.440;10.390;2023-06-22T01:43:53;101314.72;;;17.84;76.28
77325;BME280;66387;53.440;10.390;2023-06-22T01:46:19;101317.25;;;17.87;76.19
77325;BME280;66387;53.440;10.390;2023-06-22T01:48:46;101311.22;;;17.83;76.05
77325;BME280;66387;53.440;10.390;2023-06-22T01:51:12;101315.72;;;17.80;75.78
77325;BME280;66387;53.440;10.390;2023-06-22T01:53:37;101314.81;;;17.81;75.95
77325;BME280;66387;53.440;10.390;2023-06-22T01:56:03;101311.47;;;17.76;76.12
77325;BME280;66387;53.440;10.390;2023-06-22T01:58:30;101305.41;;;17.74;75.95
77325;BME280;66387;53.440;10.390;2023-06-22T02:01:09;101310.75;;;17.71;76.59
77325;BME280;66387;53.440;10.390;2023-06-22T02:03:40;101313.53;;;17.66;76.69
77325;BME280;66387;53.440;10.390;2023-06-22T02:06:10;101311.69;;;17.68;76.66
77325;BME280;66387;53.440;10.390;2023-06-22T02:08:47;101317.09;;;17.63;76.82
77325;BME280;66387;53.440;10.390;2023-06-22T02:11:15;101311.06;;;17.60;77.03
77325;BME280;66387;53.440;10.390;2023-06-22T02:13:41;101308.53;;;17.58;77.03
77325;BME280;66387;53.440;10.390;2023-06-22T02:16:10;101312.00;;;17.59;76.91
77325;BME280;66387;53.440;10.390;2023-06-22T02:18:36;101306.66;;;17.62;76.97
77325;BME280;66387;53.440;10.390;2023-06-22T02:21:02;101313.63;;;17.63;76.69
77325;BME280;66387;53.440;10.390;2023-06-22T02:23:27;101312.00;;;17.59;77.27
77325;BME280;66387;53.440;10.390;2023-06-22T02:25:53;101309.50;;;17.53;77.13
77325;BME280;66387;53.440;10.390;2023-06-22T02:28:18;101311.38;;;17.49;77.30
77325;BME280;66387;53.440;10.390;2023-06-22T02:30:43;101306.19;;;17.48;77.65
77325;BME280;66387;53.440;10.390;2023-06-22T02:33:09;101297.47;;;17.46;77.76
77325;BME280;66387;53.440;10.390;2023-06-22T02:35:34;101302.09;;;17.38;77.96
77325;BME280;66387;53.440;10.390;2023-06-22T02:38:02;101303.03;;;17.37;78.39
77325;BME280;66387;53.440;10.390;2023-06-22T02:40:28;101303.97;;;17.34;78.43
77325;BME280;66387;53.440;10.390;2023-06-22T02:42:54;101302.19;;;17.35;78.27
77325;BME280;66387;53.440;10.390;2023-06-22T02:45:20;101303.19;;;17.31;78.49
77325;BME280;66387;53.440;10.390;2023-06-22T02:47:45;101299.97;;;17.23;78.52
77325;BME280;66387;53.440;10.390;2023-06-22T02:50:10;101303.56;;;17.19;78.24
77325;BME280;66387;53.440;10.390;2023-06-22T02:52:36;101306.41;;;17.11;78.46
77325;BME280;66387;53.440;10.390;2023-06-22T02:55:01;101306.41;;;17.11;78.88
77325;BME280;66387;53.440;10.390;2023-06-22T02:57:27;101307.28;;;17.11;79.32
77325;BME280;66387;53.440;10.390;2023-06-22T02:59:52;101309.38;;;16.99;80.09
77325;BME280;66387;53.440;10.390;2023-06-22T03:02:17;101306.06;;;16.92;80.11
77325;BME280;66387;53.440;10.390;2023-06-22T03:04:44;101317.56;;;16.88;80.15
77325;BME280;66387;53.440;10.390;2023-06-22T03:07:09;101311.34;;;16.91;79.81
77325;BME280;66387;53.440;10.390;2023-06-22T03:09:34;101308.78;;;16.89;80.14
77325;BME280;66387;53.440;10.390;2023-06-22T03:12:00;101300.84;;;16.92;80.05
77325;BME280;66387;53.440;10.390;2023-06-22T03:14:27;101299.19;;;16.88;80.50
77325;BME280;66387;53.440;10.390;2023-06-22T03:16:52;101296.66;;;16.85;80.56
77325;BME280;66387;53.440;10.390;2023-06-22T03:19:17;101299.19;;;16.88;79.95
77325;BME280;66387;53.440;10.390;2023-06-22T03:21:44;101311.31;;;16.92;80.16
77325;BME280;66387;53.440;10.390;2023-06-22T03:24:09;101304.25;;;16.94;79.96
77325;BME280;66387;53.440;10.390;2023-06-22T03:26:35;101320.00;;;16.94;79.89
77325;BME280;66387;53.440;10.390;2023-06-22T03:29:00;101319.94;;;16.97;79.80
77325;BME280;66387;53.440;10.390;2023-06-22T03:31:25;101316.28;;;17.01;80.04
77325;BME280;66387;53.440;10.390;2023-06-22T03:33:51;101321.53;;;17.01;79.97
77325;BME280;66387;53.440;10.390;2023-06-22T03:36:17;101318.13;;;16.99;80.20
77325;BME280;66387;53.440;10.390;2023-06-22T03:38:47;101328.50;;;17.02;79.63
77325;BME280;66387;53.440;10.390;2023-06-22T03:41:12;101338.22;;;17.00;80.34
77325;BME280;66387;53.440;10.390;2023-06-22T03:43:38;101338.16;;;17.02;80.23
77325;BME280;66387;53.440;10.390;2023-06-22T03:46:03;101339.78;;;17.06;79.94
77325;BME280;66387;53.440;10.390;2023-06-22T03:48:28;101346.47;;;17.16;79.83
77325;BME280;66387;53.440;10.390;2023-06-22T03:50:54;101348.94;;;17.22;80.04
77325;BME280;66387;53.440;10.390;2023-06-22T03:53:19;101342.72;;;17.26;79.44
77325;BME280;66387;53.440;10.390;2023-06-22T03:55:49;101348.72;;;17.30;79.47
77325;BME280;66387;53.440;10.390;2023-06-22T03:58:15;101348.63;;;17.33;79.55
77325;BME280;66387;53.440;10.390;2023-06-22T04:00:40;101354.78;;;17.32;79.25
77325;BME280;66387;53.440;10.390;2023-06-22T04:03:05;101358.09;;;17.38;79.18
77325;BME280;66387;53.440;10.390;2023-06-22T04:05:32;101363.19;;;17.43;79.79
77325;BME280;66387;53.440;10.390;2023-06-22T04:07:57;101358.69;;;17.48;79.87
77325;BME280;66387;53.440;10.390;2023-06-22T04:10:22;101369.13;;;17.49;79.98
77325;BME280;66387;53.440;10.390;2023-06-22T04:12:48;101369.09;;;17.51;79.37
77325;BME280;66387;53.440;10.390;2023-06-22T04:15:13;101373.44;;;17.52;79.17
77325;BME280;66387;53.440;10.390;2023-06-22T04:17:38;101375.81;;;17.61;78.80
77325;BME280;66387;53.440;10.390;2023-06-22T04:20:04;101370.31;;;17.70;79.10
77325;BME280;66387;53.440;10.390;2023-06-22T04:22:30;101375.31;;;17.78;78.72
77325;BME280;66387;53.440;10.390;2023-06-22T04:24:55;101367.34;;;17.81;79.32
77325;BME280;66387;53.440;10.390;2023-06-22T04:27:20;101370.63;;;17.87;77.95
77325;BME280;66387;53.440;10.390;2023-06-22T04:29:48;101356.44;;;17.93;78.31
77325;BME280;66387;53.440;10.390;2023-06-22T04:32:15;101358.16;;;17.94;78.44
77325;BME280;66387;53.440;10.390;2023-06-22T04:34:40;101355.28;;;18.01;78.67
77325;BME280;66387;53.440;10.390;2023-06-22T04:37:05;101356.91;;;18.05;78.71
77325;BME280;66387;53.440;10.390;2023-06-22T04:39:31;101368.47;;;18.00;77.89
77325;BME280;66387;53.440;10.390;2023-06-22T04:41:56;101363.97;;;18.03;77.63
77325;BME280;66387;53.440;10.390;2023-06-22T04:44:25;101359.53;;;18.05;77.85
77325;BME280;66387;53.440;10.390;2023-06-22T04:46:55;101357.47;;;18.15;77.06
77325;BME280;66387;53.440;10.390;2023-06-22T04:49:29;101358.06;;;18.25;77.07
77325;BME280;66387;53.440;10.390;2023-06-22T04:52:02;101361.69;;;18.21;76.97
77325;BME280;66387;53.440;10.390;2023-06-22T04:54:28;101358.94;;;18.24;77.43
77325;BME280;66387;53.440;10.390;2023-06-22T04:56:53;101354.44;;;18.27;77.63
77325;BME280;66387;53.440;10.390;2023-06-22T04:59:27;101364.00;;;18.30;76.99
77325;BME280;66387;53.440;10.390;2023-06-22T05:02:02;101367.50;;;18.30;77.09
77325;BME280;66387;53.440;10.390;2023-06-22T05:04:30;101370.97;;;18.31;77.32
77325;BME280;66387;53.440;10.390;2023-06-22T05:07:01;101374.16;;;18.40;76.68
77325;BME280;66387;53.440;10.390;2023-06-22T05:09:27;101372.50;;;18.38;76.30
77325;BME280;66387;53.440;10.390;2023-06-22T05:11:52;101370.50;;;18.44;76.52
77325;BME280;66387;53.440;10.390;2023-06-22T05:14:17;101371.00;;;18.57;76.94
77325;BME280;66387;53.440;10.390;2023-06-22T05:16:44;101370.06;;;18.58;76.79
77325;BME280;66387;53.440;10.390;2023-06-22T05:19:10;101365.63;;;18.60;76.45
77325;BME280;66387;53.440;10.390;2023-06-22T05:21:35;101367.41;;;18.59;76.75
77325;BME280;66387;53.440;10.390;2023-06-22T05:24:04;101370.78;;;18.63;77.26
77325;BME280;66387;53.440;10.390;2023-06-22T05:26:30;101369.63;;;18.72;77.44
77325;BME280;66387;53.440;10.390;2023-06-22T05:28:56;101378.25;;;18.75;77.55
77325;BME280;66387;53.440;10.390;2023-06-22T05:31:22;101371.28;;;18.74;77.88
77325;BME280;66387;53.440;10.390;2023-06-22T05:33:50;101370.50;;;18.72;77.83
77325;BME280;66387;53.440;10.390;2023-06-22T05:36:16;101375.03;;;18.67;77.65
77325;BME280;66387;53.440;10.390;2023-06-22T05:38:41;101364.38;;;18.72;78.31
77325;BME280;66387;53.440;10.390;2023-06-22T05:41:07;101363.09;;;18.83;77.69
77325;BME280;66387;53.440;10.390;2023-06-22T05:43:33;101372.47;;;18.90;76.55
77325;BME280;66387;53.440;10.390;2023-06-22T05:46:00;101372.28;;;18.95;75.81
77325;BME280;66387;53.440;10.390;2023-06-22T05:48:25;101374.75;;;18.99;75.85
77325;BME280;66387;53.440;10.390;2023-06-22T05:50:50;101372.84;;;19.04;75.32
77325;BME280;66387;53.440;10.390;2023-06-22T05:53:15;101369.69;;;19.18;75.39
77325;BME280;66387;53.440;10.390;2023-06-22T05:55:41;101371.94;;;19.29;76.16
77325;BME280;66387;53.440;10.390;2023-06-22T05:58:07;101366.22;;;19.41;74.24
77325;BME280;66387;53.440;10.390;2023-06-22T06:00:32;101364.28;;;19.46;73.32
77325;BME280;66387;53.440;10.390;2023-06-22T06:02:58;101367.78;;;19.46;73.59
77325;BME280;66387;53.440;10.390;2023-06-22T06:05:31;101366.00;;;19.47;73.49
77325;BME280;66387;53.440;10.390;2023-06-22T06:07:57;101368.53;;;19.50;73.59
77325;BME280;66387;53.440;10.390;2023-06-22T06:10:23;101367.88;;;19.45;73.81
77325;BME280;66387;53.440;10.390;2023-06-22T06:12:48;101374.50;;;19.55;74.57
77325;BME280;66387;53.440;10.390;2023-06-22T06:15:14;101367.50;;;19.54;74.73
77325;BME280;66387;53.440;10.390;2023-06-22T06:17:49;101372.31;;;19.66;74.09
77325;BME280;66387;53.440;10.390;2023-06-22T06:20:17;101366.44;;;19.81;73.91
77325;BME280;66387;53.440;10.390;2023-06-22T06:22:43;101362.38;;;19.94;73.85
77325;BME280;66387;53.440;10.390;2023-06-22T06:25:08;101356.81;;;20.02;73.26
77325;BME280;66387;53.440;10.390;2023-06-22T06:27:34;101358.41;;;20.06;72.59
77325;BME280;66387;53.440;10.390;2023-06-22T06:29:59;101360.75;;;20.14;72.54
77325;BME280;66387;53.440;10.390;2023-06-22T06:32:24;101356.81;;;20.24;71.89
77325;BME280;66387;53.440;10.390;2023-06-22T06:34:50;101362.38;;;20.38;72.51
77325;BME280;66387;53.440;10.390;2023-06-22T06:37:15;101364.66;;;20.47;71.18
77325;BME280;66387;53.440;10.390;2023-06-22T06:39:40;101363.25;;;20.59;70.59
77325;BME280;66387;53.440;10.390;2023-06-22T06:42:06;101357.66;;;20.66;69.52
77325;BME280;66387;53.440;10.390;2023-06-22T06:44:31;101354.25;;;20.64;69.44
77325;BME280;66387;53.440;10.390;2023-06-22T06:46:56;101346.59;;;20.58;69.83
77325;BME280;66387;53.440;10.390;2023-06-22T06:49:22;101358.50;;;20.67;70.43
77325;BME280;66387;53.440;10.390;2023-06-22T06:51:47;101355.56;;;20.74;69.95
77325;BME280;66387;53.440;10.390;2023-06-22T06:54:13;101357.84;;;20.82;68.86
77325;BME280;66387;53.440;10.390;2023-06-22T06:56:38;101345.53;;;20.82;69.36
77325;BME280;66387;53.440;10.390;2023-06-22T06:59:03;101346.69;;;20.95;68.72
77325;BME280;66387;53.440;10.390;2023-06-22T07:01:28;101345.38;;;21.06;69.04
77325;BME280;66387;53.440;10.390;2023-06-22T07:03:58;101338.91;;;21.13;68.07
77325;BME280;66387;53.440;10.390;2023-06-22T07:06:23;101342.00;;;21.22;68.02
77325;BME280;66387;53.440;10.390;2023-06-22T07:08:54;101333.38;;;21.37;68.77
77325;BME280;66387;53.440;10.390;2023-06-22T07:11:20;101338.88;;;21.51;67.42
77325;BME280;66387;53.440;10.390;2023-06-22T07:13:45;101338.84;;;21.70;67.45
77325;BME280;66387;53.440;10.390;2023-06-22T07:16:10;101345.47;;;21.79;66.79
77325;BME280;66387;53.440;10.390;2023-06-22T07:18:35;101340.34;;;21.94;65.47
77325;BME280;66387;53.440;10.390;2023-06-22T07:21:01;101334.31;;;22.10;65.08
77325;BME280;66387;53.440;10.390;2023-06-22T07:23:26;101341.78;;;22.19;64.83
77325;BME280;66387;53.440;10.390;2023-06-22T07:25:51;101339.38;;;22.31;64.99
77325;BME280;66387;53.440;10.390;2023-06-22T07:28:16;101340.41;;;22.46;64.57
77325;BME280;66387;53.440;10.390;2023-06-22T07:30:42;101346.78;;;22.59;63.38
77325;BME280;66387;53.440;10.390;2023-06-22T07:33:07;101349.53;;;22.75;62.89
77325;BME280;66387;53.440;10.390;2023-06-22T07:35:33;101352.69;;;22.81;61.14
77325;BME280;66387;53.440;10.390;2023-06-22T07:37:59;101347.16;;;22.86;61.66
77325;BME280;66387;53.440;10.390;2023-06-22T07:40:25;101334.78;;;22.86;62.24
77325;BME280;66387;53.440;10.390;2023-06-22T07:42:51;101340.94;;;22.87;62.83
77325;BME280;66387;53.440;10.390;2023-06-22T07:45:20;101341.94;;;23.02;61.35
77325;BME280;66387;53.440;10.390;2023-06-22T07:47:45;101354.31;;;23.01;60.50
77325;BME280;66387;53.440;10.390;2023-06-22T07:50:10;101340.91;;;23.04;60.46
77325;BME280;66387;53.440;10.390;2023-06-22T07:52:36;101345.28;;;23.21;60.21
77325;BME280;66387;53.440;10.390;2023-06-22T07:55:01;101338.88;;;23.42;59.87
77325;BME280;66387;53.440;10.390;2023-06-22T07:57:27;101340.75;;;23.56;59.36
77325;BME280;66387;53.440;10.390;2023-06-22T07:59:58;101344.28;;;23.56;58.57
77325;BME280;66387;53.440;10.390;2023-06-22T08:02:24;101340.56;;;23.43;60.19
77325;BME280;66387;53.440;10.390;2023-06-22T08:04:50;101342.97;;;23.48;59.63
77325;BME280;66387;53.440;10.390;2023-06-22T08:07:15;101340.22;;;23.65;57.07
77325;BME280;66387;53.440;10.390;2023-06-22T08:09:46;101345.41;;;23.68;55.68
77325;BME280;66387;53.440;10.390;2023-06-22T08:12:11;101340.59;;;23.74;56.75
77325;BME280;66387;53.440;10.390;2023-06-22T08:14:38;101340.31;;;23.94;57.10
77325;BME280;66387;53.440;10.390;2023-06-22T08:17:03;101345.66;;;24.09;55.85
77325;BME280;66387;53.440;10.390;2023-06-22T08:19:29;101349.75;;;24.30;55.15
77325;BME280;66387;53.440;10.390;2023-06-22T08:21:54;101347.19;;;24.44;54.14
77325;BME280;66387;53.440;10.390;2023-06-22T08:24:19;101349.88;;;24.58;53.78
77325;BME280;66387;53.440;10.390;2023-06-22T08:26:45;101343.06;;;24.38;53.24
77325;BME280;66387;53.440;10.390;2023-06-22T08:29:10;101344.06;;;24.52;52.17
77325;BME280;66387;53.440;10.390;2023-06-22T08:31:35;101342.84;;;24.57;52.12
77325;BME280;66387;53.440;10.390;2023-06-22T08:34:01;101348.09;;;24.73;49.86
77325;BME280;66387;53.440;10.390;2023-06-22T08:36:27;101335.84;;;24.70;52.09
77325;BME280;66387;53.440;10.390;2023-06-22T08:38:58;101335.56;;;24.75;53.40
77325;BME280;66387;53.440;10.390;2023-06-22T08:41:28;101338.56;;;24.84;53.13
77325;BME280;66387;53.440;10.390;2023-06-22T08:43:53;101332.22;;;25.01;53.81
77325;BME280;66387;53.440;10.390;2023-06-22T08:46:19;101333.53;;;25.08;53.43
77325;BME280;66387;53.440;10.390;2023-06-22T08:48:48;101335.13;;;24.97;52.92
77325;BME280;66387;53.440;10.390;2023-06-22T08:51:13;101333.25;;;24.84;53.46
77325;BME280;66387;53.440;10.390;2023-06-22T08:53:39;101318.78;;;24.74;53.29
77325;BME280;66387;53.440;10.390;2023-06-22T08:56:04;101323.19;;;24.89;51.94
77325;BME280;66387;53.440;10.390;2023-06-22T08:58:29;101322.44;;;25.16;51.80
77325;BME280;66387;53.440;10.390;2023-06-22T09:00:55;101316.53;;;25.25;51.68
77325;BME280;66387;53.440;10.390;2023-06-22T09:03:20;101321.66;;;25.42;51.80
77325;BME280;66387;53.440;10.390;2023-06-22T09:05:45;101320.88;;;25.54;50.60
77325;BME280;66387;53.440;10.390;2023-06-22T09:08:11;101318.59;;;25.62;51.02
77325;BME280;66387;53.440;10.390;2023-06-22T09:10:36;101317.53;;;25.65;49.69
77325;BME280;66387;53.440;10.390;2023-06-22T09:13:01;101323.69;;;25.65;50.30
77325;BME280;66387;53.440;10.390;2023-06-22T09:15:27;101324.34;;;25.69;50.71
77325;BME280;66387;53.440;10.390;2023-06-22T09:17:52;101318.00;;;25.71;49.80
77325;BME280;66387;53.440;10.390;2023-06-22T09:20:19;101315.28;;;25.85;49.95
77325;BME280;66387;53.440;10.390;2023-06-22T09:22:45;101313.59;;;25.84;49.11
77325;BME280;66387;53.440;10.390;2023-06-22T09:25:10;101309.69;;;25.76;47.93
77325;BME280;66387;53.440;10.390;2023-06-22T09:27:35;101306.81;;;25.93;49.99
77325;BME280;66387;53.440;10.390;2023-06-22T09:30:00;101305.59;;;26.11;50.54
77325;BME280;66387;53.440;10.390;2023-06-22T09:32:26;101301.44;;;26.07;48.78
77325;BME280;66387;53.440;10.390;2023-06-22T09:34:51;101296.63;;;26.26;49.35
77325;BME280;66387;53.440;10.390;2023-06-22T09:37:16;101302.88;;;26.38;47.87
77325;BME280;66387;53.440;10.390;2023-06-22T09:39:42;101296.53;;;26.41;47.87
77325;BME280;66387;53.440;10.390;2023-06-22T09:42:07;101290.69;;;26.48;48.98
77325;BME280;66387;53.440;10.390;2023-06-22T09:44:33;101286.41;;;26.58;48.59
77325;BME280;66387;53.440;10.390;2023-06-22T09:46:58;101280.25;;;26.83;48.57
77325;BME280;66387;53.440;10.390;2023-06-22T09:49:23;101272.25;;;26.83;48.95
77325;BME280;66387;53.440;10.390;2023-06-22T09:51:49;101280.03;;;26.86;48.25
77325;BME280;66387;53.440;10.390;2023-06-22T09:54:16;101285.00;;;27.03;48.85
77325;BME280;66387;53.440;10.390;2023-06-22T09:56:41;101277.75;;;27.18;47.41
77325;BME280;66387;53.440;10.390;2023-06-22T09:59:06;101277.75;;;27.18;45.64
77325;BME280;66387;53.440;10.390;2023-06-22T10:01:31;101270.63;;;27.06;45.49
77325;BME280;66387;53.440;10.390;2023-06-22T10:03:57;101265.44;;;26.92;46.18
77325;BME280;66387;53.440;10.390;2023-06-22T10:06:22;101273.25;;;27.18;47.25
77325;BME280;66387;53.440;10.390;2023-06-22T10:08:48;101265.97;;;27.33;45.93
77325;BME280;66387;53.440;10.390;2023-06-22T10:11:15;101260.00;;;27.66;46.27
77325;BME280;66387;53.440;10.390;2023-06-22T10:13:40;101254.50;;;27.80;44.34
77325;BME280;66387;53.440;10.390;2023-06-22T10:16:05;101251.91;;;27.67;43.94
77325;BME280;66387;53.440;10.390;2023-06-22T10:18:30;101256.97;;;27.83;44.46
77325;BME280;66387;53.440;10.390;2023-06-22T10:20:56;101252.53;;;28.06;44.41
77325;BME280;66387;53.440;10.390;2023-06-22T10:23:21;101249.88;;;28.06;44.66
77325;BME280;66387;53.440;10.390;2023-06-22T10:25:47;101249.88;;;28.06;44.97
77325;BME280;66387;53.440;10.390;2023-06-22T10:28:12;101249.13;;;28.04;45.28
77325;BME280;66387;53.440;10.390;2023-06-22T10:30:39;101248.34;;;27.91;44.70
77325;BME280;66387;53.440;10.390;2023-06-22T10:33:06;101244.72;;;28.15;46.08
77325;BME280;66387;53.440;10.390;2023-06-22T10:35:31;101245.00;;;28.46;44.14
77325;BME280;66387;53.440;10.390;2023-06-22T10:37:57;101246.09;;;28.43;43.69
77325;BME280;66387;53.440;10.390;2023-06-22T10:40:22;101237.84;;;28.46;43.58
77325;BME280;66387;53.440;10.390;2023-06-22T10:42:47;101237.59;;;28.49;43.45
77325;BME280;66387;53.440;10.390;2023-06-22T10:45:13;101238.09;;;28.43;42.11
77325;BME280;66387;53.440;10.390;2023-06-22T10:47:38;101225.72;;;28.53;43.61
77325;BME280;66387;53.440;10.390;2023-06-22T10:50:04;101229.13;;;28.44;44.28
77325;BME280;66387;53.440;10.390;2023-06-22T10:52:30;101226.72;;;28.52;43.35
77325;BME280;66387;53.440;10.390;2023-06-22T10:54:55;101230.84;;;28.67;43.11
77325;BME280;66387;53.440;10.390;2023-06-22T10:57:21;101223.94;;;28.76;42.63
77325;BME280;66387;53.440;10.390;2023-06-22T10:59:47;101224.25;;;28.49;43.63
77325;BME280;66387;53.440;10.390;2023-06-22T11:02:12;101221.44;;;28.29;45.16
77325;BME280;66387;53.440;10.390;2023-06-22T11:04:38;101222.72;;;28.69;44.58
77325;BME280;66387;53.440;10.390;2023-06-22T11:07:03;101207.78;;;29.00;44.35
77325;BME280;66387;53.440;10.390;2023-06-22T11:09:29;101215.66;;;28.90;43.20
77325;BME280;66387;53.440;10.390;2023-06-22T11:11:55;101212.25;;;28.55;45.37
77325;BME280;66387;53.440;10.390;2023-06-22T11:14:21;101209.09;;;28.61;44.64
77325;BME280;66387;53.440;10.390;2023-06-22T11:16:47;101212.53;;;28.74;44.88
77325;BME280;66387;53.440;10.390;2023-06-22T11:19:12;101217.88;;;28.85;44.06
77325;BME280;66387;53.440;10.390;2023-06-22T11:21:38;101200.09;;;29.06;43.77
77325;BME280;66387;53.440;10.390;2023-06-22T11:24:03;101207.72;;;29.33;42.72
77325;BME280;66387;53.440;10.390;2023-06-22T11:26:29;101194.66;;;28.86;42.42
77325;BME280;66387;53.440;10.390;2023-06-22T11:28:55;101198.41;;;28.94;43.56
77325;BME280;66387;53.440;10.390;2023-06-22T11:31:20;101197.81;;;28.80;44.20
77325;BME280;66387;53.440;10.390;2023-06-22T11:33:46;101194.91;;;28.71;44.38
77325;BME280;66387;53.440;10.390;2023-06-22T11:36:12;101188.56;;;28.61;44.06
77325;BME280;66387;53.440;10.390;2023-06-22T11:38:37;101195.84;;;29.04;43.21
77325;BME280;66387;53.440;10.390;2023-06-22T11:41:05;101189.25;;;29.19;42.84
77325;BME280;66387;53.440;10.390;2023-06-22T11:43:31;101182.63;;;28.91;42.90
77325;BME280;66387;53.440;10.390;2023-06-22T11:45:56;101183.56;;;29.01;43.60
77325;BME280;66387;53.440;10.390;2023-06-22T11:48:24;101185.75;;;28.96;43.93
77325;BME280;66387;53.440;10.390;2023-06-22T11:50:49;101194.44;;;28.89;43.99
77325;BME280;66387;53.440;10.390;2023-06-22T11:53:15;101190.75;;;28.90;43.42
77325;BME280;66387;53.440;10.390;2023-06-22T11:55:42;101191.16;;;28.85;42.88
77325;BME280;66387;53.440;10.390;2023-06-22T11:58:07;101182.13;;;28.64;43.91
77325;BME280;66387;53.440;10.390;2023-06-22T12:00:33;101180.91;;;28.57;45.13
77325;BME280;66387;53.440;10.390;2023-06-22T12:02:58;101177.53;;;28.55;44.77
77325;BME280;66387;53.440;10.390;2023-06-22T12:05:24;101171.34;;;28.77;44.67
77325;BME280;66387;53.440;10.390;2023-06-22T12:07:49;101174.44;;;29.04;43.27
77325;BME280;66387;53.440;10.390;2023-06-22T12:10:15;101170.16;;;29.35;42.94
77325;BME280;66387;53.440;10.390;2023-06-22T12:12:41;101161.22;;;29.45;42.14
77325;BME280;66387;53.440;10.390;2023-06-22T12:15:08;101152.50;;;29.43;42.65
77325;BME280;66387;53.440;10.390;2023-06-22T12:17:34;101146.31;;;29.63;43.05
77325;BME280;66387;53.440;10.390;2023-06-22T12:19:59;101147.75;;;29.67;42.43
77325;BME280;66387;53.440;10.390;2023-06-22T12:22:24;101146.25;;;29.54;43.16
77325;BME280;66387;53.440;10.390;2023-06-22T12:24:50;101142.25;;;29.48;43.04
77325;BME280;66387;53.440;10.390;2023-06-22T12:27:16;101144.38;;;29.22;43.14
77325;BME280;66387;53.440;10.390;2023-06-22T12:29:43;101134.94;;;29.07;43.32
77325;BME280;66387;53.440;10.390;2023-06-22T12:32:08;101135.38;;;28.81;43.96
77325;BME280;66387;53.440;10.390;2023-06-22T12:34:33;101136.97;;;28.72;44.34
77325;BME280;66387;53.440;10.390;2023-06-22T12:36:59;101137.34;;;29.21;43.41
77325;BME280;66387;53.440;10.390;2023-06-22T12:39:24;101128.06;;;29.68;42.70